KLM959 EHAM-EGNT
Flight info
| Callsign | KLM959 |
|---|---|
| Flight time | N/A |
| Altitude | 34000 |
| Route | BERGI L60 SOPEK L989 BODSO Y70 BATLI Y250 RIMTO |
| Aircraft | B738/M-SDE2E3FGHIRWXY/LB1 |
Departure
| Time | 2026-05-01 14:58 |
|---|---|
| Airport | Amsterdam Airport Schiphol (EHAM) |
Arrival
| Time | N/A |
|---|---|
| Airport | Newcastle International Airport (EGNT) |
| Time | Latitude | Longitude | Altitude | Speed | Heading |
|---|---|---|---|---|---|
| 2026-05-01 14:34 | 52.30709 | 4.76952 | -2 ft | 0 kts | 33° |
| 2026-05-01 14:48 | 52.30704 | 4.76947 | -2 ft | 3 kts | 30° |
| 2026-05-01 14:48 | 52.30675 | 4.76917 | -2 ft | 1 kts | 37° |
| 2026-05-01 14:49 | 52.30656 | 4.76877 | -2 ft | 3 kts | 102° |
| 2026-05-01 14:49 | 52.30683 | 4.76843 | -2 ft | 3 kts | 156° |
| 2026-05-01 14:50 | 52.30698 | 4.76830 | -2 ft | 0 kts | 148° |
| 2026-05-01 14:53 | 52.30697 | 4.76832 | -2 ft | 1 kts | 148° |
| 2026-05-01 14:53 | 52.30670 | 4.76861 | -2 ft | 9 kts | 141° |
| 2026-05-01 14:54 | 52.30653 | 4.76998 | -2 ft | 16 kts | 93° |
| 2026-05-01 14:54 | 52.30646 | 4.77207 | -2 ft | 20 kts | 93° |
| 2026-05-01 14:54 | 52.30640 | 4.77426 | -2 ft | 19 kts | 90° |
| 2026-05-01 14:54 | 52.30685 | 4.77590 | -2 ft | 17 kts | 11° |
| 2026-05-01 14:55 | 52.30800 | 4.77602 | -2 ft | 16 kts | 3° |
| 2026-05-01 14:55 | 52.30910 | 4.77612 | -2 ft | 16 kts | 3° |
| 2026-05-01 14:55 | 52.31018 | 4.77621 | -2 ft | 16 kts | 3° |
| 2026-05-01 14:55 | 52.31140 | 4.77632 | -2 ft | 19 kts | 3° |
| 2026-05-01 14:56 | 52.31271 | 4.77643 | -2 ft | 19 kts | 3° |
| 2026-05-01 14:56 | 52.31398 | 4.77654 | -2 ft | 18 kts | 0° |
| 2026-05-01 14:56 | 52.31484 | 4.77600 | -2 ft | 13 kts | 319° |
| 2026-05-01 14:56 | 52.31566 | 4.77570 | -2 ft | 13 kts | 40° |
| 2026-05-01 14:57 | 52.31590 | 4.77710 | -2 ft | 13 kts | 86° |
| 2026-05-01 14:57 | 52.31590 | 4.77945 | -1 ft | 6 kts | 123° |
| 2026-05-01 14:57 | 52.31548 | 4.77962 | 0 ft | 8 kts | 181° |
| 2026-05-01 14:58 | 52.31441 | 4.77953 | -1 ft | 26 kts | 183° |
| 2026-05-01 14:58 | 52.30999 | 4.77912 | -5 ft | 100 kts | 183° |
| 2026-05-01 14:58 | 52.30087 | 4.77827 | 7 ft | 159 kts | 182° |
| 2026-05-01 14:58 | 52.28985 | 4.77715 | 738 ft | 155 kts | 181° |
| 2026-05-01 14:59 | 52.27899 | 4.77865 | 1503 ft | 163 kts | 162° |
| 2026-05-01 14:59 | 52.26727 | 4.78501 | 2036 ft | 190 kts | 160° |
| 2026-05-01 14:59 | 52.25381 | 4.79184 | 2500 ft | 210 kts | 162° |
| 2026-05-01 14:59 | 52.23971 | 4.79808 | 3267 ft | 211 kts | 164° |
| 2026-05-01 15:00 | 52.21071 | 4.79372 | 4917 ft | 222 kts | 210° |
| 2026-05-01 15:00 | 52.20001 | 4.77468 | 5612 ft | 243 kts | 238° |
| 2026-05-01 15:00 | 52.19671 | 4.74636 | 5926 ft | 277 kts | 271° |
| 2026-05-01 15:01 | 52.20049 | 4.71472 | 6650 ft | 286 kts | 281° |
| 2026-05-01 15:01 | 52.20552 | 4.68320 | 7488 ft | 289 kts | 280° |
| 2026-05-01 15:01 | 52.21037 | 4.65113 | 8263 ft | 293 kts | 279° |
| 2026-05-01 15:01 | 52.21344 | 4.62957 | 8805 ft | 295 kts | 279° |
| 2026-05-01 15:02 | 52.21949 | 4.58581 | 9855 ft | 301 kts | 280° |
| 2026-05-01 15:02 | 52.22154 | 4.57470 | 10114 ft | 305 kts | 288° |
| 2026-05-01 15:02 | 52.24566 | 4.53051 | 10856 ft | 340 kts | 326° |
| 2026-05-01 15:02 | 52.25935 | 4.51689 | 10966 ft | 356 kts | 328° |
| 2026-05-01 15:03 | 52.28135 | 4.49612 | 11371 ft | 371 kts | 329° |
| 2026-05-01 15:03 | 52.30381 | 4.47463 | 12100 ft | 374 kts | 328° |
| 2026-05-01 15:03 | 52.32615 | 4.45268 | 12899 ft | 376 kts | 328° |
| 2026-05-01 15:03 | 52.34872 | 4.43063 | 13579 ft | 382 kts | 332° |
| 2026-05-01 15:04 | 52.37402 | 4.41713 | 14309 ft | 384 kts | 352° |
| 2026-05-01 15:04 | 52.40059 | 4.41233 | 15119 ft | 386 kts | 355° |
| 2026-05-01 15:04 | 52.42760 | 4.40852 | 15850 ft | 390 kts | 356° |
| 2026-05-01 15:04 | 52.45483 | 4.40485 | 16517 ft | 395 kts | 356° |
| 2026-05-01 15:05 | 52.48234 | 4.40098 | 17280 ft | 397 kts | 356° |
| 2026-05-01 15:05 | 52.50994 | 4.39688 | 17985 ft | 400 kts | 355° |
| 2026-05-01 15:05 | 52.53776 | 4.39259 | 18650 ft | 403 kts | 355° |
| 2026-05-01 15:05 | 52.56550 | 4.38823 | 19269 ft | 407 kts | 355° |
| 2026-05-01 15:06 | 52.59382 | 4.38372 | 19953 ft | 409 kts | 355° |
| 2026-05-01 15:06 | 52.62224 | 4.37918 | 20585 ft | 411 kts | 355° |
| 2026-05-01 15:06 | 52.65083 | 4.37461 | 21203 ft | 414 kts | 355° |
| 2026-05-01 15:06 | 52.67958 | 4.37003 | 21817 ft | 416 kts | 355° |
| 2026-05-01 15:07 | 52.70827 | 4.36282 | 22380 ft | 419 kts | 343° |
| 2026-05-01 15:07 | 52.73442 | 4.34165 | 22904 ft | 422 kts | 323° |
| 2026-05-01 15:07 | 52.75527 | 4.30771 | 23489 ft | 422 kts | 306° |
| 2026-05-01 15:07 | 52.76912 | 4.26508 | 23994 ft | 423 kts | 289° |
| 2026-05-01 15:08 | 52.77862 | 4.21905 | 24518 ft | 425 kts | 287° |
| 2026-05-01 15:08 | 52.78755 | 4.17302 | 24962 ft | 428 kts | 287° |
| 2026-05-01 15:08 | 52.79654 | 4.12602 | 25405 ft | 431 kts | 287° |
| 2026-05-01 15:08 | 52.80568 | 4.07856 | 25810 ft | 434 kts | 287° |
| 2026-05-01 15:09 | 52.81497 | 4.03094 | 26277 ft | 436 kts | 287° |
| 2026-05-01 15:09 | 52.82438 | 3.98319 | 26753 ft | 437 kts | 287° |
| 2026-05-01 15:09 | 52.83385 | 3.93541 | 27177 ft | 439 kts | 287° |
| 2026-05-01 15:09 | 52.84341 | 3.88724 | 27537 ft | 443 kts | 287° |
| 2026-05-01 15:10 | 52.85303 | 3.83870 | 27921 ft | 445 kts | 287° |
| 2026-05-01 15:10 | 52.87235 | 3.74092 | 28697 ft | 448 kts | 287° |
| 2026-05-01 15:10 | 52.88192 | 3.69233 | 29041 ft | 450 kts | 287° |
| 2026-05-01 15:11 | 52.89161 | 3.64293 | 29379 ft | 452 kts | 287° |
| 2026-05-01 15:11 | 52.91104 | 3.54347 | 30091 ft | 453 kts | 286° |
| 2026-05-01 15:11 | 52.92069 | 3.49386 | 30571 ft | 451 kts | 286° |
| 2026-05-01 15:12 | 52.93029 | 3.44443 | 31026 ft | 449 kts | 286° |
| 2026-05-01 15:12 | 52.94936 | 3.34579 | 31752 ft | 449 kts | 286° |
| 2026-05-01 15:12 | 52.95885 | 3.29655 | 32148 ft | 448 kts | 286° |
| 2026-05-01 15:13 | 52.98709 | 3.14918 | 33263 ft | 446 kts | 286° |
| 2026-05-01 15:14 | 53.00563 | 3.05168 | 33923 ft | 445 kts | 286° |
| 2026-05-01 15:14 | 53.01492 | 3.00272 | 34227 ft | 445 kts | 286° |
| 2026-05-01 15:14 | 53.03362 | 2.90370 | 34207 ft | 449 kts | 285° |
| 2026-05-01 15:15 | 53.06925 | 2.70680 | 34210 ft | 442 kts | 284° |
| 2026-05-01 15:16 | 53.10339 | 2.51083 | 34209 ft | 441 kts | 284° |
| 2026-05-01 15:18 | 53.14595 | 2.26544 | 34197 ft | 441 kts | 283° |
| 2026-05-01 15:19 | 53.17974 | 2.06823 | 34184 ft | 441 kts | 283° |
| 2026-05-01 15:19 | 53.20471 | 1.92099 | 34177 ft | 442 kts | 282° |
| 2026-05-01 15:20 | 53.22959 | 1.77308 | 34177 ft | 441 kts | 282° |
| 2026-05-01 15:21 | 53.24609 | 1.67428 | 34175 ft | 441 kts | 282° |
| 2026-05-01 15:21 | 53.26248 | 1.57554 | 34173 ft | 441 kts | 282° |
| 2026-05-01 15:22 | 53.28688 | 1.42746 | 34178 ft | 440 kts | 282° |
| 2026-05-01 15:22 | 53.30292 | 1.32938 | 34175 ft | 440 kts | 282° |
| 2026-05-01 15:23 | 53.31899 | 1.23063 | 34167 ft | 440 kts | 281° |
| 2026-05-01 15:23 | 53.33499 | 1.13176 | 34154 ft | 440 kts | 281° |
| 2026-05-01 15:24 | 53.35094 | 1.03270 | 34147 ft | 440 kts | 281° |
| 2026-05-01 15:24 | 53.36679 | 0.93355 | 34147 ft | 440 kts | 281° |
| 2026-05-01 15:25 | 53.38245 | 0.83501 | 34149 ft | 440 kts | 281° |
| 2026-05-01 15:25 | 53.39814 | 0.73566 | 34148 ft | 440 kts | 281° |
| 2026-05-01 15:26 | 53.41375 | 0.63624 | 34143 ft | 440 kts | 280° |
| 2026-05-01 15:26 | 53.42916 | 0.53754 | 34137 ft | 440 kts | 280° |
| 2026-05-01 15:27 | 53.44461 | 0.43803 | 34139 ft | 440 kts | 280° |
| 2026-05-01 15:28 | 53.46755 | 0.28895 | 34139 ft | 439 kts | 279° |
| 2026-05-01 15:28 | 53.48272 | 0.18965 | 34130 ft | 439 kts | 279° |
| 2026-05-01 15:29 | 53.50524 | 0.04106 | 34128 ft | 439 kts | 279° |
| 2026-05-01 15:30 | 53.53516 | -0.15838 | 34134 ft | 442 kts | 280° |
| 2026-05-01 15:31 | 53.57951 | -0.45882 | 34135 ft | 440 kts | 280° |
| 2026-05-01 15:32 | 53.60858 | -0.65884 | 34127 ft | 439 kts | 280° |
| 2026-05-01 15:34 | 53.65152 | -0.95910 | 34132 ft | 440 kts | 279° |